<?xml version="1.0" encoding="UTF-8" standalone="no" ?>
<gpx xmlns="http://www.topografix.com/GPX/1/1" xmlns:xsi="http://www.w3.org/2001/XMLSchema-instance" xsi:schemaLocation="http://www.topografix.com/GPX/1/1 http://www.topografix.com/GPX/1/1/gpx.xsd" version="1.1" creator="VisuGPX - https://www.visugpx.com">
  <metadata>
    <name>Veigy4</name>
  </metadata>
  <trk>
    <name><![CDATA[CURRENT TRACK- 13 OCT 2021 12-44]]></name>
    <extensions>
      <line xmlns="http://www.topografix.com/GPX/gpx_style/0/2">
        <color>00FFFF</color>
        <width>4</width>
      </line>
    </extensions>
    <trkseg>
      <trkpt lat="46.26798" lon="6.25781">
        <ele>366.21</ele>
        <time>2021-10-13T12:44:48Z</time>
      </trkpt>
      <trkpt lat="46.26838" lon="6.25786">
        <ele>472.4</ele>
        <time>2021-10-13T12:53:50Z</time>
      </trkpt>
      <trkpt lat="46.26745" lon="6.25763">
        <ele>472.4</ele>
        <time>2021-10-13T12:54:21Z</time>
      </trkpt>
      <trkpt lat="46.26708" lon="6.25742">
        <ele>472.4</ele>
        <time>2021-10-13T12:54:35Z</time>
      </trkpt>
      <trkpt lat="46.26639" lon="6.25703">
        <ele>472.4</ele>
        <time>2021-10-13T12:55:08Z</time>
      </trkpt>
      <trkpt lat="46.26546" lon="6.25693">
        <ele>472.4</ele>
        <time>2021-10-13T12:55:58Z</time>
      </trkpt>
      <trkpt lat="46.26499" lon="6.25742">
        <ele>478.57</ele>
        <time>2021-10-13T12:56:25Z</time>
      </trkpt>
      <trkpt lat="46.26526" lon="6.2584">
        <ele>479.61</ele>
        <time>2021-10-13T12:56:47Z</time>
      </trkpt>
      <trkpt lat="46.2657" lon="6.25891">
        <ele>478.84</ele>
        <time>2021-10-13T12:57:00Z</time>
      </trkpt>
      <trkpt lat="46.26589" lon="6.2601">
        <ele>476.71</ele>
        <time>2021-10-13T12:57:20Z</time>
      </trkpt>
      <trkpt lat="46.26566" lon="6.26112">
        <ele>476.69</ele>
        <time>2021-10-13T12:57:41Z</time>
      </trkpt>
      <trkpt lat="46.2655" lon="6.26257">
        <ele>478.12</ele>
        <time>2021-10-13T12:58:04Z</time>
      </trkpt>
      <trkpt lat="46.26569" lon="6.26372">
        <ele>478.12</ele>
        <time>2021-10-13T12:58:24Z</time>
      </trkpt>
      <trkpt lat="46.26577" lon="6.26431">
        <ele>478.12</ele>
        <time>2021-10-13T12:58:33Z</time>
      </trkpt>
      <trkpt lat="46.26583" lon="6.26543">
        <ele>478.12</ele>
        <time>2021-10-13T12:58:51Z</time>
      </trkpt>
      <trkpt lat="46.26595" lon="6.26692">
        <ele>478.12</ele>
        <time>2021-10-13T12:59:16Z</time>
      </trkpt>
      <trkpt lat="46.26541" lon="6.26692">
        <ele>478.12</ele>
        <time>2021-10-13T12:59:41Z</time>
      </trkpt>
      <trkpt lat="46.26447" lon="6.26668">
        <ele>485.73</ele>
        <time>2021-10-13T13:00:10Z</time>
      </trkpt>
      <trkpt lat="46.26407" lon="6.26669">
        <ele>485.97</ele>
        <time>2021-10-13T13:00:20Z</time>
      </trkpt>
      <trkpt lat="46.26333" lon="6.26643">
        <ele>487.91</ele>
        <time>2021-10-13T13:00:41Z</time>
      </trkpt>
      <trkpt lat="46.26265" lon="6.26598">
        <ele>488.05</ele>
        <time>2021-10-13T13:00:57Z</time>
      </trkpt>
      <trkpt lat="46.26169" lon="6.26549">
        <ele>488.42</ele>
        <time>2021-10-13T13:01:20Z</time>
      </trkpt>
      <trkpt lat="46.26089" lon="6.26509">
        <ele>488.84</ele>
        <time>2021-10-13T13:01:40Z</time>
      </trkpt>
      <trkpt lat="46.26049" lon="6.26493">
        <ele>489.32</ele>
        <time>2021-10-13T13:01:52Z</time>
      </trkpt>
      <trkpt lat="46.2596" lon="6.26442">
        <ele>490.49</ele>
        <time>2021-10-13T13:02:15Z</time>
      </trkpt>
      <trkpt lat="46.25886" lon="6.26405">
        <ele>492.09</ele>
        <time>2021-10-13T13:02:37Z</time>
      </trkpt>
      <trkpt lat="46.25802" lon="6.26392">
        <ele>493.63</ele>
        <time>2021-10-13T13:02:57Z</time>
      </trkpt>
      <trkpt lat="46.25736" lon="6.26457">
        <ele>494.75</ele>
        <time>2021-10-13T13:03:20Z</time>
      </trkpt>
      <trkpt lat="46.25716" lon="6.26514">
        <ele>495.73</ele>
        <time>2021-10-13T13:03:30Z</time>
      </trkpt>
      <trkpt lat="46.25678" lon="6.2662">
        <ele>498.04</ele>
        <time>2021-10-13T13:03:51Z</time>
      </trkpt>
      <trkpt lat="46.25614" lon="6.26734">
        <ele>499.97</ele>
        <time>2021-10-13T13:04:17Z</time>
      </trkpt>
      <trkpt lat="46.25574" lon="6.26838">
        <ele>501.08</ele>
        <time>2021-10-13T13:04:36Z</time>
      </trkpt>
      <trkpt lat="46.25533" lon="6.26932">
        <ele>503.06</ele>
        <time>2021-10-13T13:04:57Z</time>
      </trkpt>
      <trkpt lat="46.25474" lon="6.27044">
        <ele>504.32</ele>
        <time>2021-10-13T13:05:23Z</time>
      </trkpt>
      <trkpt lat="46.25454" lon="6.2709">
        <ele>505.07</ele>
        <time>2021-10-13T13:05:34Z</time>
      </trkpt>
      <trkpt lat="46.25405" lon="6.27176">
        <ele>505.84</ele>
        <time>2021-10-13T13:05:55Z</time>
      </trkpt>
      <trkpt lat="46.25336" lon="6.27272">
        <ele>509.17</ele>
        <time>2021-10-13T13:06:25Z</time>
      </trkpt>
      <trkpt lat="46.25269" lon="6.27335">
        <ele>510.43</ele>
        <time>2021-10-13T13:06:46Z</time>
      </trkpt>
      <trkpt lat="46.25209" lon="6.27357">
        <ele>513.92</ele>
        <time>2021-10-13T13:07:13Z</time>
      </trkpt>
      <trkpt lat="46.25176" lon="6.27328">
        <ele>513.96</ele>
        <time>2021-10-13T13:07:23Z</time>
      </trkpt>
      <trkpt lat="46.2509" lon="6.27412">
        <ele>510.86</ele>
        <time>2021-10-13T13:07:51Z</time>
      </trkpt>
      <trkpt lat="46.25054" lon="6.27504">
        <ele>509.1</ele>
        <time>2021-10-13T13:09:28Z</time>
      </trkpt>
      <trkpt lat="46.25086" lon="6.27615">
        <ele>509.73</ele>
        <time>2021-10-13T13:09:54Z</time>
      </trkpt>
      <trkpt lat="46.25023" lon="6.27723">
        <ele>511.58</ele>
        <time>2021-10-13T13:10:26Z</time>
      </trkpt>
      <trkpt lat="46.24986" lon="6.27731">
        <ele>512.71</ele>
        <time>2021-10-13T13:10:39Z</time>
      </trkpt>
      <trkpt lat="46.24927" lon="6.27804">
        <ele>514.49</ele>
        <time>2021-10-13T13:11:02Z</time>
      </trkpt>
      <trkpt lat="46.24892" lon="6.27895">
        <ele>516.2</ele>
        <time>2021-10-13T13:11:37Z</time>
      </trkpt>
      <trkpt lat="46.24854" lon="6.27968">
        <ele>516.84</ele>
        <time>2021-10-13T13:12:03Z</time>
      </trkpt>
      <trkpt lat="46.24786" lon="6.28044">
        <ele>519.16</ele>
        <time>2021-10-13T13:12:28Z</time>
      </trkpt>
      <trkpt lat="46.24736" lon="6.28105">
        <ele>520.81</ele>
        <time>2021-10-13T13:12:49Z</time>
      </trkpt>
      <trkpt lat="46.24672" lon="6.28205">
        <ele>522.77</ele>
        <time>2021-10-13T13:13:18Z</time>
      </trkpt>
      <trkpt lat="46.24662" lon="6.28312">
        <ele>524.96</ele>
        <time>2021-10-13T13:13:47Z</time>
      </trkpt>
      <trkpt lat="46.24704" lon="6.2844">
        <ele>526.45</ele>
        <time>2021-10-13T13:14:31Z</time>
      </trkpt>
      <trkpt lat="46.24772" lon="6.28519">
        <ele>525.66</ele>
        <time>2021-10-13T13:14:51Z</time>
      </trkpt>
      <trkpt lat="46.24812" lon="6.28549">
        <ele>525.28</ele>
        <time>2021-10-13T13:15:00Z</time>
      </trkpt>
      <trkpt lat="46.24861" lon="6.28632">
        <ele>523.69</ele>
        <time>2021-10-13T13:15:27Z</time>
      </trkpt>
      <trkpt lat="46.2479" lon="6.28718">
        <ele>524.11</ele>
        <time>2021-10-13T13:15:51Z</time>
      </trkpt>
      <trkpt lat="46.24716" lon="6.288">
        <ele>525.5</ele>
        <time>2021-10-13T13:16:13Z</time>
      </trkpt>
      <trkpt lat="46.24658" lon="6.28941">
        <ele>526.99</ele>
        <time>2021-10-13T13:16:41Z</time>
      </trkpt>
      <trkpt lat="46.24632" lon="6.29002">
        <ele>527.99</ele>
        <time>2021-10-13T13:16:54Z</time>
      </trkpt>
      <trkpt lat="46.24563" lon="6.29103">
        <ele>530.59</ele>
        <time>2021-10-13T13:17:22Z</time>
      </trkpt>
      <trkpt lat="46.24485" lon="6.29183">
        <ele>532.53</ele>
        <time>2021-10-13T13:17:53Z</time>
      </trkpt>
      <trkpt lat="46.24402" lon="6.2933">
        <ele>534.49</ele>
        <time>2021-10-13T13:18:34Z</time>
      </trkpt>
      <trkpt lat="46.24365" lon="6.29463">
        <ele>535.82</ele>
        <time>2021-10-13T13:19:01Z</time>
      </trkpt>
      <trkpt lat="46.24276" lon="6.29468">
        <ele>537.27</ele>
        <time>2021-10-13T13:19:33Z</time>
      </trkpt>
      <trkpt lat="46.2424" lon="6.29466">
        <ele>536.79</ele>
        <time>2021-10-13T13:19:49Z</time>
      </trkpt>
      <trkpt lat="46.24187" lon="6.29572">
        <ele>538.03</ele>
        <time>2021-10-13T13:20:15Z</time>
      </trkpt>
      <trkpt lat="46.24126" lon="6.29676">
        <ele>540.65</ele>
        <time>2021-10-13T13:21:01Z</time>
      </trkpt>
      <trkpt lat="46.24062" lon="6.29798">
        <ele>544.05</ele>
        <time>2021-10-13T13:21:42Z</time>
      </trkpt>
      <trkpt lat="46.23993" lon="6.2972">
        <ele>544.56</ele>
        <time>2021-10-13T13:22:06Z</time>
      </trkpt>
      <trkpt lat="46.23962" lon="6.29675">
        <ele>544.25</ele>
        <time>2021-10-13T13:22:20Z</time>
      </trkpt>
      <trkpt lat="46.23907" lon="6.29534">
        <ele>543.35</ele>
        <time>2021-10-13T13:23:12Z</time>
      </trkpt>
      <trkpt lat="46.23845" lon="6.2944">
        <ele>543.35</ele>
        <time>2021-10-13T13:23:36Z</time>
      </trkpt>
      <trkpt lat="46.23773" lon="6.29383">
        <ele>543.35</ele>
        <time>2021-10-13T13:23:58Z</time>
      </trkpt>
      <trkpt lat="46.23688" lon="6.2931">
        <ele>543.35</ele>
        <time>2021-10-13T13:24:20Z</time>
      </trkpt>
      <trkpt lat="46.2365" lon="6.29278">
        <ele>543.35</ele>
        <time>2021-10-13T13:24:32Z</time>
      </trkpt>
      <trkpt lat="46.23589" lon="6.29205">
        <ele>543.35</ele>
        <time>2021-10-13T13:24:52Z</time>
      </trkpt>
      <trkpt lat="46.23512" lon="6.29107">
        <ele>543.35</ele>
        <time>2021-10-13T13:25:23Z</time>
      </trkpt>
      <trkpt lat="46.23447" lon="6.2902">
        <ele>543.35</ele>
        <time>2021-10-13T13:25:41Z</time>
      </trkpt>
      <trkpt lat="46.23388" lon="6.2894">
        <ele>543.35</ele>
        <time>2021-10-13T13:25:58Z</time>
      </trkpt>
      <trkpt lat="46.23362" lon="6.28892">
        <ele>543.35</ele>
        <time>2021-10-13T13:26:09Z</time>
      </trkpt>
      <trkpt lat="46.23345" lon="6.28829">
        <ele>543.35</ele>
        <time>2021-10-13T13:26:52Z</time>
      </trkpt>
      <trkpt lat="46.23368" lon="6.28719">
        <ele>543.35</ele>
        <time>2021-10-13T13:27:16Z</time>
      </trkpt>
      <trkpt lat="46.23409" lon="6.28593">
        <ele>543.35</ele>
        <time>2021-10-13T13:27:45Z</time>
      </trkpt>
      <trkpt lat="46.23376" lon="6.285">
        <ele>543.35</ele>
        <time>2021-10-13T13:28:05Z</time>
      </trkpt>
      <trkpt lat="46.23346" lon="6.28461">
        <ele>543.35</ele>
        <time>2021-10-13T13:28:12Z</time>
      </trkpt>
      <trkpt lat="46.23305" lon="6.28351">
        <ele>543.35</ele>
        <time>2021-10-13T13:28:28Z</time>
      </trkpt>
      <trkpt lat="46.23285" lon="6.28316">
        <ele>538.88</ele>
        <time>2021-10-13T13:28:57Z</time>
      </trkpt>
      <trkpt lat="46.23233" lon="6.28401">
        <ele>540.27</ele>
        <time>2021-10-13T13:29:19Z</time>
      </trkpt>
      <trkpt lat="46.2317" lon="6.28443">
        <ele>538.87</ele>
        <time>2021-10-13T13:29:52Z</time>
      </trkpt>
      <trkpt lat="46.23124" lon="6.28392">
        <ele>539.23</ele>
        <time>2021-10-13T13:31:12Z</time>
      </trkpt>
      <trkpt lat="46.23076" lon="6.2827">
        <ele>537.1</ele>
        <time>2021-10-13T13:32:10Z</time>
      </trkpt>
      <trkpt lat="46.23042" lon="6.28148">
        <ele>536.52</ele>
        <time>2021-10-13T13:33:15Z</time>
      </trkpt>
      <trkpt lat="46.22951" lon="6.28039">
        <ele>536.25</ele>
        <time>2021-10-13T13:34:24Z</time>
      </trkpt>
      <trkpt lat="46.22876" lon="6.2796">
        <ele>538.05</ele>
        <time>2021-10-13T13:35:54Z</time>
      </trkpt>
      <trkpt lat="46.22828" lon="6.27946">
        <ele>535.28</ele>
        <time>2021-10-13T13:39:36Z</time>
      </trkpt>
      <trkpt lat="46.22815" lon="6.28028">
        <ele>539.78</ele>
        <time>2021-10-13T13:39:57Z</time>
      </trkpt>
      <trkpt lat="46.22733" lon="6.27983">
        <ele>541.51</ele>
        <time>2021-10-13T13:40:22Z</time>
      </trkpt>
      <trkpt lat="46.22654" lon="6.27931">
        <ele>541.98</ele>
        <time>2021-10-13T13:40:47Z</time>
      </trkpt>
      <trkpt lat="46.22577" lon="6.27973">
        <ele>543.17</ele>
        <time>2021-10-13T13:41:22Z</time>
      </trkpt>
      <trkpt lat="46.22544" lon="6.28105">
        <ele>545.91</ele>
        <time>2021-10-13T13:41:57Z</time>
      </trkpt>
      <trkpt lat="46.22527" lon="6.28172">
        <ele>547.48</ele>
        <time>2021-10-13T13:42:14Z</time>
      </trkpt>
      <trkpt lat="46.2245" lon="6.2817">
        <ele>548.93</ele>
        <time>2021-10-13T13:42:53Z</time>
      </trkpt>
      <trkpt lat="46.22378" lon="6.28112">
        <ele>549.39</ele>
        <time>2021-10-13T13:43:20Z</time>
      </trkpt>
      <trkpt lat="46.22308" lon="6.28055">
        <ele>549.46</ele>
        <time>2021-10-13T13:43:42Z</time>
      </trkpt>
      <trkpt lat="46.22219" lon="6.27974">
        <ele>549.25</ele>
        <time>2021-10-13T13:44:11Z</time>
      </trkpt>
      <trkpt lat="46.22179" lon="6.27931">
        <ele>549.25</ele>
        <time>2021-10-13T13:44:20Z</time>
      </trkpt>
      <trkpt lat="46.2211" lon="6.27856">
        <ele>549.25</ele>
        <time>2021-10-13T13:44:41Z</time>
      </trkpt>
      <trkpt lat="46.21623" lon="6.26729">
        <ele>483</ele>
      </trkpt>
      <trkpt lat="46.21478" lon="6.26426">
        <ele>477.9</ele>
      </trkpt>
      <trkpt lat="46.21204" lon="6.26256">
        <ele>480.2</ele>
        <time>2021-10-13T13:45:03Z</time>
      </trkpt>
      <trkpt lat="46.21079" lon="6.26404">
        <ele>473.5</ele>
        <time>2021-10-13T13:45:48Z</time>
      </trkpt>
      <trkpt lat="46.21057" lon="6.26491">
        <ele>468.8</ele>
      </trkpt>
      <trkpt lat="46.21257" lon="6.26817">
        <ele>464.8</ele>
      </trkpt>
      <trkpt lat="46.21184" lon="6.27028">
        <ele>458.9</ele>
      </trkpt>
      <trkpt lat="46.21354" lon="6.27332">
        <ele>485.5</ele>
      </trkpt>
      <trkpt lat="46.21365" lon="6.27658">
        <ele>487.8</ele>
        <time>2021-10-13T13:46:16Z</time>
      </trkpt>
      <trkpt lat="46.21199" lon="6.27598">
        <ele>480.7</ele>
      </trkpt>
      <trkpt lat="46.21317" lon="6.28143">
        <ele>467.9</ele>
        <time>2021-10-13T13:46:47Z</time>
      </trkpt>
      <trkpt lat="46.2129" lon="6.28255">
        <ele>470</ele>
      </trkpt>
      <trkpt lat="46.21469" lon="6.28637">
        <ele>474.1</ele>
      </trkpt>
      <trkpt lat="46.21555" lon="6.28855">
        <ele>476.9</ele>
        <time>2021-10-13T13:47:18Z</time>
      </trkpt>
      <trkpt lat="46.21699" lon="6.29248">
        <ele>482.2</ele>
        <time>2021-10-13T13:47:41Z</time>
      </trkpt>
      <trkpt lat="46.21823" lon="6.29478">
        <ele>479.4</ele>
        <time>2021-10-13T13:48:01Z</time>
      </trkpt>
      <trkpt lat="46.21945" lon="6.29696">
        <ele>482.1</ele>
        <time>2021-10-13T13:48:26Z</time>
      </trkpt>
      <trkpt lat="46.22284" lon="6.29979">
        <ele>488.8</ele>
      </trkpt>
      <trkpt lat="46.22633" lon="6.30234">
        <ele>499.6</ele>
        <time>2021-10-13T13:57:09Z</time>
      </trkpt>
      <trkpt lat="46.22894" lon="6.30414">
        <ele>496.5</ele>
        <time>2021-10-13T13:57:27Z</time>
      </trkpt>
      <trkpt lat="46.23324" lon="6.30705">
        <ele>509.1</ele>
        <time>2021-10-13T13:59:31Z</time>
      </trkpt>
      <trkpt lat="46.23194" lon="6.30976">
        <ele>509.6</ele>
        <time>2021-10-13T13:59:57Z</time>
      </trkpt>
      <trkpt lat="46.23666" lon="6.31319">
        <ele>509.3</ele>
        <time>2021-10-13T14:00:20Z</time>
      </trkpt>
      <trkpt lat="46.23833" lon="6.31113">
        <ele>508.3</ele>
        <time>2021-10-13T14:00:44Z</time>
      </trkpt>
      <trkpt lat="46.23914" lon="6.30924">
        <ele>517.9</ele>
        <time>2021-10-13T14:01:34Z</time>
      </trkpt>
      <trkpt lat="46.23978" lon="6.30718">
        <ele>515.5</ele>
        <time>2021-10-13T14:01:47Z</time>
      </trkpt>
      <trkpt lat="46.24015" lon="6.30739">
        <ele>515.6</ele>
        <time>2021-10-13T14:03:01Z</time>
      </trkpt>
      <trkpt lat="46.2404" lon="6.30746">
        <ele>515.4</ele>
        <time>2021-10-13T14:03:25Z</time>
      </trkpt>
      <trkpt lat="46.24072" lon="6.30782">
        <ele>516.3</ele>
      </trkpt>
      <trkpt lat="46.2413" lon="6.30831">
        <ele>516.8</ele>
        <time>2021-10-13T14:03:37Z</time>
      </trkpt>
      <trkpt lat="46.24153" lon="6.30766">
        <ele>513.9</ele>
        <time>2021-10-13T14:04:13Z</time>
      </trkpt>
      <trkpt lat="46.24175" lon="6.307">
        <ele>565.25</ele>
        <time>2021-10-13T14:04:39Z</time>
      </trkpt>
      <trkpt lat="46.24236" lon="6.30769">
        <ele>566.94</ele>
        <time>2021-10-13T14:05:03Z</time>
      </trkpt>
      <trkpt lat="46.24327" lon="6.30782">
        <ele>567.02</ele>
        <time>2021-10-13T14:05:30Z</time>
      </trkpt>
      <trkpt lat="46.24403" lon="6.30799">
        <ele>567.14</ele>
        <time>2021-10-13T14:05:51Z</time>
      </trkpt>
      <trkpt lat="46.24435" lon="6.30765">
        <ele>565.89</ele>
        <time>2021-10-13T14:06:02Z</time>
      </trkpt>
      <trkpt lat="46.24531" lon="6.30794">
        <ele>567.39</ele>
        <time>2021-10-13T14:06:26Z</time>
      </trkpt>
      <trkpt lat="46.24605" lon="6.30818">
        <ele>567.51</ele>
        <time>2021-10-13T14:06:45Z</time>
      </trkpt>
      <trkpt lat="46.24668" lon="6.30871">
        <ele>567.59</ele>
        <time>2021-10-13T14:07:05Z</time>
      </trkpt>
      <trkpt lat="46.24758" lon="6.30881">
        <ele>568.3</ele>
        <time>2021-10-13T14:08:50Z</time>
      </trkpt>
      <trkpt lat="46.24798" lon="6.30888">
        <ele>568.3</ele>
        <time>2021-10-13T14:09:03Z</time>
      </trkpt>
      <trkpt lat="46.24836" lon="6.30814">
        <ele>568.3</ele>
        <time>2021-10-13T14:09:26Z</time>
      </trkpt>
      <trkpt lat="46.24873" lon="6.30684">
        <ele>568.3</ele>
        <time>2021-10-13T14:09:58Z</time>
      </trkpt>
      <trkpt lat="46.24909" lon="6.30581">
        <ele>558.95</ele>
        <time>2021-10-13T14:10:29Z</time>
      </trkpt>
      <trkpt lat="46.24936" lon="6.30471">
        <ele>554.8</ele>
        <time>2021-10-13T14:10:53Z</time>
      </trkpt>
      <trkpt lat="46.2497" lon="6.3041">
        <ele>549.89</ele>
        <time>2021-10-13T14:11:38Z</time>
      </trkpt>
      <trkpt lat="46.25044" lon="6.30472">
        <ele>550.33</ele>
        <time>2021-10-13T14:12:04Z</time>
      </trkpt>
      <trkpt lat="46.25119" lon="6.30538">
        <ele>550.43</ele>
        <time>2021-10-13T14:12:28Z</time>
      </trkpt>
      <trkpt lat="46.25208" lon="6.30492">
        <ele>549.62</ele>
        <time>2021-10-13T14:12:52Z</time>
      </trkpt>
      <trkpt lat="46.2524" lon="6.30369">
        <ele>546.66</ele>
        <time>2021-10-13T14:13:08Z</time>
      </trkpt>
      <trkpt lat="46.2526" lon="6.30312">
        <ele>545.45</ele>
        <time>2021-10-13T14:13:16Z</time>
      </trkpt>
      <trkpt lat="46.25305" lon="6.30212">
        <ele>541.8</ele>
        <time>2021-10-13T14:13:32Z</time>
      </trkpt>
      <trkpt lat="46.25369" lon="6.30088">
        <ele>539.57</ele>
        <time>2021-10-13T14:13:55Z</time>
      </trkpt>
      <trkpt lat="46.25419" lon="6.29996">
        <ele>537.36</ele>
        <time>2021-10-13T14:14:12Z</time>
      </trkpt>
      <trkpt lat="46.25442" lon="6.29852">
        <ele>534.38</ele>
        <time>2021-10-13T14:14:54Z</time>
      </trkpt>
      <trkpt lat="46.25449" lon="6.29797">
        <ele>533.35</ele>
        <time>2021-10-13T14:15:02Z</time>
      </trkpt>
      <trkpt lat="46.25464" lon="6.29688">
        <ele>531.36</ele>
        <time>2021-10-13T14:15:18Z</time>
      </trkpt>
      <trkpt lat="46.25482" lon="6.2957">
        <ele>528.64</ele>
        <time>2021-10-13T14:15:34Z</time>
      </trkpt>
      <trkpt lat="46.25526" lon="6.2943">
        <ele>523.47</ele>
        <time>2021-10-13T14:15:58Z</time>
      </trkpt>
      <trkpt lat="46.25566" lon="6.2932">
        <ele>522.41</ele>
        <time>2021-10-13T14:16:16Z</time>
      </trkpt>
      <trkpt lat="46.25552" lon="6.29263">
        <ele>521.76</ele>
        <time>2021-10-13T14:16:26Z</time>
      </trkpt>
      <trkpt lat="46.25655" lon="6.29261">
        <ele>520.81</ele>
        <time>2021-10-13T14:17:25Z</time>
      </trkpt>
      <trkpt lat="46.2574" lon="6.29309">
        <ele>519.93</ele>
        <time>2021-10-13T14:17:41Z</time>
      </trkpt>
      <trkpt lat="46.25808" lon="6.29254">
        <ele>519.18</ele>
        <time>2021-10-13T14:18:00Z</time>
      </trkpt>
      <trkpt lat="46.25867" lon="6.29142">
        <ele>518.45</ele>
        <time>2021-10-13T14:18:24Z</time>
      </trkpt>
      <trkpt lat="46.25909" lon="6.29042">
        <ele>517.85</ele>
        <time>2021-10-13T14:18:43Z</time>
      </trkpt>
      <trkpt lat="46.25928" lon="6.29007">
        <ele>515.12</ele>
        <time>2021-10-13T14:19:08Z</time>
      </trkpt>
      <trkpt lat="46.2597" lon="6.28899">
        <ele>515.11</ele>
        <time>2021-10-13T14:21:05Z</time>
      </trkpt>
      <trkpt lat="46.25987" lon="6.28814">
        <ele>515.11</ele>
        <time>2021-10-13T14:21:33Z</time>
      </trkpt>
      <trkpt lat="46.25931" lon="6.28705">
        <ele>515.11</ele>
        <time>2021-10-13T14:22:05Z</time>
      </trkpt>
      <trkpt lat="46.25846" lon="6.28592">
        <ele>517.75</ele>
        <time>2021-10-13T14:22:36Z</time>
      </trkpt>
      <trkpt lat="46.25841" lon="6.28528">
        <ele>518.29</ele>
        <time>2021-10-13T14:22:51Z</time>
      </trkpt>
      <trkpt lat="46.25783" lon="6.28424">
        <ele>518.03</ele>
        <time>2021-10-13T14:23:15Z</time>
      </trkpt>
      <trkpt lat="46.25741" lon="6.28269">
        <ele>517.68</ele>
        <time>2021-10-13T14:23:45Z</time>
      </trkpt>
      <trkpt lat="46.25735" lon="6.28161">
        <ele>517.68</ele>
        <time>2021-10-13T14:24:06Z</time>
      </trkpt>
      <trkpt lat="46.25773" lon="6.28052">
        <ele>517.68</ele>
        <time>2021-10-13T14:24:26Z</time>
      </trkpt>
      <trkpt lat="46.25797" lon="6.28">
        <ele>517.68</ele>
        <time>2021-10-13T14:24:37Z</time>
      </trkpt>
      <trkpt lat="46.2588" lon="6.2788">
        <ele>517.68</ele>
        <time>2021-10-13T14:25:05Z</time>
      </trkpt>
      <trkpt lat="46.25932" lon="6.27773">
        <ele>512.45</ele>
        <time>2021-10-13T14:25:29Z</time>
      </trkpt>
      <trkpt lat="46.25972" lon="6.27674">
        <ele>511.82</ele>
        <time>2021-10-13T14:25:49Z</time>
      </trkpt>
      <trkpt lat="46.25997" lon="6.27534">
        <ele>509.68</ele>
        <time>2021-10-13T14:26:14Z</time>
      </trkpt>
      <trkpt lat="46.25992" lon="6.27467">
        <ele>508.94</ele>
        <time>2021-10-13T14:26:27Z</time>
      </trkpt>
      <trkpt lat="46.25991" lon="6.27349">
        <ele>507.39</ele>
        <time>2021-10-13T14:26:45Z</time>
      </trkpt>
      <trkpt lat="46.25933" lon="6.27219">
        <ele>505.13</ele>
        <time>2021-10-13T14:27:09Z</time>
      </trkpt>
      <trkpt lat="46.25861" lon="6.27156">
        <ele>504.76</ele>
        <time>2021-10-13T14:27:28Z</time>
      </trkpt>
      <trkpt lat="46.25884" lon="6.2705">
        <ele>503.9</ele>
        <time>2021-10-13T14:27:46Z</time>
      </trkpt>
      <trkpt lat="46.2591" lon="6.26972">
        <ele>503.12</ele>
        <time>2021-10-13T14:27:57Z</time>
      </trkpt>
      <trkpt lat="46.25927" lon="6.26854">
        <ele>503.08</ele>
        <time>2021-10-13T14:28:14Z</time>
      </trkpt>
      <trkpt lat="46.25944" lon="6.26736">
        <ele>501.84</ele>
        <time>2021-10-13T14:28:33Z</time>
      </trkpt>
      <trkpt lat="46.25968" lon="6.266">
        <ele>498.76</ele>
        <time>2021-10-13T14:28:53Z</time>
      </trkpt>
      <trkpt lat="46.26021" lon="6.26618">
        <ele>498.04</ele>
        <time>2021-10-13T14:29:12Z</time>
      </trkpt>
      <trkpt lat="46.26044" lon="6.26666">
        <ele>498.69</ele>
        <time>2021-10-13T14:29:22Z</time>
      </trkpt>
      <trkpt lat="46.26133" lon="6.26744">
        <ele>497.51</ele>
        <time>2021-10-13T14:29:43Z</time>
      </trkpt>
      <trkpt lat="46.26196" lon="6.26817">
        <ele>496.68</ele>
        <time>2021-10-13T14:30:02Z</time>
      </trkpt>
      <trkpt lat="46.2624" lon="6.26897">
        <ele>496.68</ele>
        <time>2021-10-13T14:30:32Z</time>
      </trkpt>
      <trkpt lat="46.26275" lon="6.27001">
        <ele>497.36</ele>
        <time>2021-10-13T14:30:59Z</time>
      </trkpt>
      <trkpt lat="46.26296" lon="6.27108">
        <ele>498.99</ele>
        <time>2021-10-13T14:31:20Z</time>
      </trkpt>
      <trkpt lat="46.26326" lon="6.27146">
        <ele>498.98</ele>
        <time>2021-10-13T14:31:33Z</time>
      </trkpt>
      <trkpt lat="46.26365" lon="6.27243">
        <ele>499.6</ele>
        <time>2021-10-13T14:31:55Z</time>
      </trkpt>
      <trkpt lat="46.26412" lon="6.27367">
        <ele>500.45</ele>
        <time>2021-10-13T14:32:24Z</time>
      </trkpt>
      <trkpt lat="46.26466" lon="6.27445">
        <ele>500.74</ele>
        <time>2021-10-13T14:43:46Z</time>
      </trkpt>
      <trkpt lat="46.26517" lon="6.2757">
        <ele>500.74</ele>
        <time>2021-10-13T14:44:15Z</time>
      </trkpt>
      <trkpt lat="46.26535" lon="6.27622">
        <ele>500.74</ele>
        <time>2021-10-13T14:44:32Z</time>
      </trkpt>
      <trkpt lat="46.26592" lon="6.27566">
        <ele>500.74</ele>
        <time>2021-10-13T14:44:53Z</time>
      </trkpt>
      <trkpt lat="46.26613" lon="6.2746">
        <ele>500.74</ele>
        <time>2021-10-13T14:45:12Z</time>
      </trkpt>
      <trkpt lat="46.26617" lon="6.27313">
        <ele>500.74</ele>
        <time>2021-10-13T14:45:34Z</time>
      </trkpt>
      <trkpt lat="46.26619" lon="6.27206">
        <ele>495.71</ele>
        <time>2021-10-13T14:45:50Z</time>
      </trkpt>
      <trkpt lat="46.2662" lon="6.27149">
        <ele>495.35</ele>
        <time>2021-10-13T14:45:58Z</time>
      </trkpt>
      <trkpt lat="46.2667" lon="6.27023">
        <ele>491.8</ele>
        <time>2021-10-13T14:46:15Z</time>
      </trkpt>
      <trkpt lat="46.26729" lon="6.27055">
        <ele>483.93</ele>
        <time>2021-10-13T14:46:38Z</time>
      </trkpt>
      <trkpt lat="46.26767" lon="6.26953">
        <ele>481.1</ele>
        <time>2021-10-13T14:46:58Z</time>
      </trkpt>
      <trkpt lat="46.26729" lon="6.26839">
        <ele>480.53</ele>
        <time>2021-10-13T14:47:48Z</time>
      </trkpt>
      <trkpt lat="46.26704" lon="6.26792">
        <ele>479.45</ele>
        <time>2021-10-13T14:48:02Z</time>
      </trkpt>
      <trkpt lat="46.26671" lon="6.26679">
        <ele>478.74</ele>
        <time>2021-10-13T14:48:28Z</time>
      </trkpt>
      <trkpt lat="46.26632" lon="6.26524">
        <ele>478.22</ele>
        <time>2021-10-13T14:49:10Z</time>
      </trkpt>
      <trkpt lat="46.26625" lon="6.26389">
        <ele>477.49</ele>
        <time>2021-10-13T14:49:40Z</time>
      </trkpt>
      <trkpt lat="46.26654" lon="6.26274">
        <ele>477.91</ele>
        <time>2021-10-13T14:50:11Z</time>
      </trkpt>
      <trkpt lat="46.26674" lon="6.26221">
        <ele>477.47</ele>
        <time>2021-10-13T14:50:24Z</time>
      </trkpt>
      <trkpt lat="46.26741" lon="6.2619">
        <ele>480.06</ele>
        <time>2021-10-13T14:51:01Z</time>
      </trkpt>
      <trkpt lat="46.26793" lon="6.26183">
        <ele>480.94</ele>
        <time>2021-10-13T14:51:41Z</time>
      </trkpt>
      <trkpt lat="46.26827" lon="6.2611">
        <ele>481.63</ele>
        <time>2021-10-13T14:52:08Z</time>
      </trkpt>
      <trkpt lat="46.26851" lon="6.25991">
        <ele>478.91</ele>
        <time>2021-10-13T14:52:23Z</time>
      </trkpt>
      <trkpt lat="46.26868" lon="6.25942">
        <ele>478.4</ele>
        <time>2021-10-13T14:52:32Z</time>
      </trkpt>
      <trkpt lat="46.26904" lon="6.25858">
        <ele>478.4</ele>
        <time>2021-10-13T14:52:55Z</time>
      </trkpt>
      <trkpt lat="46.26852" lon="6.25782">
        <ele>477.78</ele>
        <time>2021-10-13T14:53:19Z</time>
      </trkpt>
      <trkpt lat="46.26831" lon="6.25778">
        <ele>476.11</ele>
        <time>2021-10-13T14:56:53Z</time>
      </trkpt>
    </trkseg>
  </trk>
</gpx>